Crianlarich, United Kingdom
Current Conditions -  °F | °C
As of 9:50 PM on Tuesday 25 Nov 2014 (Local Time) from EGPF Reporting Station
Overcast Overcast  
Wind Chill: 44°   Ceiling: 3300
Heat Index: 46°   Visibility: 6mi
Dew Point: 45°   Wind: 6mph
Humidity: 93%   Direction: 70°ENE
Pressure: 30.12"   Gusts: NA
Location:  56.39°N, 4.62°W
Report Text: EGPF 252150Z AUTO 07005KT 030V100 9999 OVC033 08/07 Q1020
Loading
Personal Weather Stations






























Interactive Weather Map New forecast layout! Learn more

10-Day Weather Forecast

Advertisements
Track Severe Weather on mobile